Ana Sayfa
METAR-TAF:

METAR-TAF

Havaalanları :

Caracas, Venezuela

Enlem: 10-36N, Boylam: 066-59W, yükseklik: 43 m

Güncel hava durumu gözlemi

Rapor saat 04:00 UTC de 42 dakika önce yapıldı.
Rüzgar doğudan 2 kt
Sıcaklık 24°C
Nem 89%
Basınç 1007 hPa
Görüş mesafesi 10 km veya daha fazla
1600 ft yükseklikte az bulutlu

METAR: SVMI 270400Z 09002KT 9999 FEW016 24/22 Q1007

Saat: 00:42 (04:42 UTC)

Tahmin

Rapor saat 22:00 UTC de 6 saat ve 42 dakika önce yapıldı.
Ayın 27'si saat 00 UTC'den ayın 28'si saat 00 UTC'ye kadar geçerli Tahmin
Rüzgar kuzeydoğudan 3 kt
Görüş mesafesi 10 km veya daha fazla
1600 ft yükseklikte parçalı çok bulutlu
Dönüşüyor
ayın 27'si saat 01 UTC'den ayın 27'si saat 05 UTC'ye kadar
Rüzgar kuzeydoğudan 12 kt
Görüş mesafesi: 9000 m
İstasyon Civarında/ Çevresinde, çisenti

TAF: SVMI 262200Z 2700/2800 05003KT 9999 BKN016 TX32/18Z TN21/09Z BECMG 2701/2705 05012KT 9000 VCDZ

4.000'den fazla havaalanı için hava durumu gözlemleri ve tahminleri (METAR ve TAF raporları).

Kullanılabilir istasyonlar harita üzerinde sarı ve kırmızı noktalarla gösterilir.

İstasyonun adını görmek için fareyi noktanın üzerinde gezdirin.

Sonrasında hava gözlem ve tahminlerini görmek için tıklayın.

Haritayı değiştirmek için: yaklaştırmak için siyah artı işaretli yeşil düğmeye ve uzaklaştırmak için de eksi işaretli düğmeye hızla tıklayın; bitişik haritalar için yeşil okları kullanın.


METAR-TAF: